Wednesday, October 18, 2017, 5:51 PM EDT
Back to Local

KPYM, Plymouth Municipal Airport

Location: Carver, MA, United States Lat: 41.9
Local Time: 5:51 PM EDT (21:51 GMT) Lon: -70.733
Time Zone: US/Eastern Elev: 147 ft

Show me the last for .
Show Decoded

2017-10-18 16:52 METAR KPYM 182052Z AUTO 22004KT 10SM CLR 21/06 A3023 RMK AO2 SLP235 T02110056
                 53000 =
2017-10-18 15:52 METAR KPYM 181952Z AUTO 26005KT 10SM CLR 22/04 A3023 RMK AO2 SLP235 T02220044 =
2017-10-18 14:52 METAR KPYM 181852Z AUTO 29004KT 10SM CLR 22/05 A3022 RMK AO2 SLP233 T02170050 =
2017-10-18 13:52 METAR KPYM 181752Z AUTO 27008KT 10SM CLR 21/06 A3023 RMK AO2 SLP235 T02110061
                 10211 20083 58017 =
2017-10-18 12:52 METAR KPYM 181652Z AUTO 26007KT 10SM CLR 21/07 A3025 RMK AO2 SLP242 T02060072 =
2017-10-18 11:52 METAR KPYM 181552Z AUTO 26007KT 10SM CLR 19/07 A3027 RMK AO2 SLP250 T01890067 =
2017-10-18 10:52 METAR KPYM 181452Z AUTO 25008KT 10SM CLR 17/06 A3028 RMK AO2 SLP253 T01720056
                 51008 =
2017-10-18 09:52 METAR KPYM 181352Z AUTO 25006KT 10SM CLR 15/06 A3027 RMK AO2 SLP251 T01500056 =
2017-10-18 08:52 METAR KPYM 181252Z AUTO 25006KT 10SM CLR 12/06 A3027 RMK AO2 SLP250 T01220056 =
2017-10-18 07:52 METAR KPYM 181152Z AUTO 21004KT 10SM CLR 08/04 A3025 RMK AO2 SLP245 T00830044
                 10083 20056 53009 =
2017-10-18 06:52 METAR KPYM 181052Z AUTO 20004KT 10SM CLR 07/04 A3024 RMK AO2 SLP239 T00720044 =
2017-10-18 05:52 METAR KPYM 180952Z AUTO 22004KT 10SM CLR 06/04 A3024 RMK AO2 SLP239 T00610039 =
2017-10-18 04:52 METAR KPYM 180852Z AUTO 21003KT 10SM CLR 07/04 A3023 RMK AO2 SLP236 T00670044
                 55006 =
2017-10-18 03:52 METAR KPYM 180752Z AUTO 21004KT 10SM CLR 06/03 A3022 RMK AO2 SLP235 T00610033 =
2017-10-18 02:52 METAR KPYM 180652Z AUTO 20004KT 10SM CLR 07/04 A3023 RMK AO2 SLP237 T00670039 =
2017-10-18 01:52 METAR KPYM 180552Z AUTO 22005KT 10SM CLR 08/04 A3024 RMK AO2 SLP241 T00780039
                 10083 20061 56009 =
2017-10-18 00:52 METAR KPYM 180452Z AUTO 23004KT 10SM CLR 07/04 A3025 RMK AO2 SLP245 T00720039
                 401440044 =
2017-10-17 23:52 METAR KPYM 180352Z AUTO 21003KT 10SM CLR 07/03 A3026 RMK AO2 SLP246 T00670028 =
2017-10-17 22:52 METAR KPYM 180252Z AUTO 21005KT 10SM CLR 07/03 A3027 RMK AO2 SLP250 T00720033
                 51006 =
2017-10-17 21:52 METAR KPYM 180152Z AUTO 23005KT 10SM CLR 07/03 A3027 RMK AO2 SLP250 T00720028 =
2017-10-17 20:52 METAR KPYM 180052Z AUTO 22005KT 10SM CLR 08/03 A3026 RMK AO2 SLP249 T00780028 =
2017-10-17 19:52 METAR KPYM 172352Z AUTO 21006KT 10SM CLR 08/03 A3025 RMK AO2 SLP245 T00830028
                 10144 20083 53007 =
2017-10-17 18:52 METAR KPYM 172252Z AUTO 19006KT 10SM CLR 09/03 A3025 RMK AO2 SLP243 T00940028 =
2017-10-17 17:52 METAR KPYM 172152Z AUTO VRB04KT 10SM CLR 11/02 A3023 RMK AO2 SLP237 T01110022 =

Support USWX by starting your Amazon purchase here.